Aeroporto :
LOGIN :

Iscrizione | Disclaimer

   EN    FR    IT 

 










Sommario :    VFR   VFR Marginale   IFR   IFR Intensivo   IFR Molto Intensivo
Visibilità : 
Base nubi : 
>= 8 km
>= 3000ft
5 / 8 km
1000 / 3000 ft
1500m / 5 km
500 / 1000 ft
800 / 1500m
200 / 500 ft
< 800m
< 200 ft
Simboli :   Temporali  Nebbia  Neve Forte  Precipitazioni Forti  Vento > 20 kt
SIGMETs :   Varie  Temporali  Ghiacco  Turbolenza  Onda orograficha  Ceneri Vulcaniche






- Altitudine del aeroporto : 22 ft
- Codice IATA : SKG


LGTS - Thessaloniki

ULTIMO METAR :
  • 210350Z 35010KT 9999 FEW030 08/00 Q1019 NOSIG

METARs OBSOLETI :
  • 210320Z 35010KT 9999 FEW030 08/00 Q1019 NOSIG
  • 210250Z 35012KT 9999 FEW030 08/00 Q1019 NOSIG
  • 210220Z 35012KT 9999 FEW030 08/01 Q1019 NOSIG
  • 210150Z 35010KT 9999 FEW030 08/00 Q1018 NOSIG
  • 210120Z 35013KT 9999 FEW030 08/00 Q1018 NOSIG
  • 210050Z 36015KT 9999 FEW030 08/00 Q1018 NOSIG

TAF TAF LGTS
Valido dal 21 a 00 ore il 22 a 00 ore UTC


202300Z 2100/2124 34015KT 9999 FEW030
BECMG 2112/2114 34005KT
BECMG 2121/2123 34015KT
TEMPO 2121/2124 34020G30KT



MetMap, La meteo Aeronautica in un colpo d'occhio ! - Copyright ORBIFLY Dicembre 2007 - Disclaimer

ORBIFLY MET'MAP TEAM :

Programmazione e sviluppo : Alexandra Zaïnal
Concezione : Baudouin d'Aumeries
Aiuto per la programmazione : Marc-Olivier Méhu
Supporto tecnico e logistico : Manuel Goepfert
Aiuto per la traduzione : Arnaldo La Scala

Contatto : metmap@orbifly.com




FONTI E CREDITI :

   NOAA